Edenburg, Illinois
Current Conditions -  °F | °C
As of 5:55 AM on Saturday 25 Oct 2014 (Local Time) from KTAZ Reporting Station
Scattered Clouds Scattered Clouds  
Wind Chill: 55°   Ceiling: Unl
Heat Index: 55°   Visibility: 7mi
Dew Point: 54°   Wind: 8mph
Humidity: 94%   Direction: 270°W
Pressure: 30"   Gusts: NA
Location:  39.6725°N, 89.3417°W
Report Text: KTAZ 251055Z AUTO 27007KT 7SM SCT017 13/12 A3000 RMK AO2
Loading
Personal Weather Stations






























Interactive Weather Map
Tropical Storm Tracking
New forecast layout! Learn more

10-Day Weather Forecast

Advertisements
Track Severe Weather on mobile